LNI84 WIMM-OEMA
Flight info
| Callsign | LNI84 |
|---|---|
| Flight time | N/A |
| Altitude | 34000 |
| Route | MAIMU DCT MEMAK N563 XOKRO/N0478F360 N563 REXOD/N0472F380 L883 UMILA N569 TOKRA DCT ITRUX Y511 ELONU |
| Aircraft | A339/H-SADE1E2E3GHIJ3J5M1P2RWXY/LB2D1 |
Departure
| Time | 2026-05-06 18:26 |
|---|---|
| Airport | Kualanamu International Airport (WIMM) |
Arrival
| Time | N/A |
|---|---|
| Airport | Prince Mohammad Bin Abdulaziz Airport (OEMA) |
| Time | Latitude | Longitude | Altitude | Speed | Heading |
|---|---|---|---|---|---|
| 2026-05-06 18:07 | 3.63610 | 98.88376 | 46 ft | 0 kts | 135° |
| 2026-05-06 18:17 | 3.63614 | 98.88372 | 46 ft | 4 kts | 133° |
| 2026-05-06 18:17 | 3.63632 | 98.88352 | 67 ft | 4 kts | 117° |
| 2026-05-06 18:17 | 3.63642 | 98.88328 | 43 ft | 4 kts | 101° |
| 2026-05-06 18:17 | 3.63646 | 98.88303 | 44 ft | 2 kts | 100° |
| 2026-05-06 18:18 | 3.63647 | 98.88297 | 45 ft | 0 kts | 100° |
| 2026-05-06 18:20 | 3.63648 | 98.88301 | 44 ft | 2 kts | 94° |
| 2026-05-06 18:20 | 3.63659 | 98.88325 | 41 ft | 5 kts | 60° |
| 2026-05-06 18:21 | 3.63692 | 98.88363 | 46 ft | 9 kts | 47° |
| 2026-05-06 18:21 | 3.63746 | 98.88417 | 46 ft | 13 kts | 45° |
| 2026-05-06 18:21 | 3.63830 | 98.88443 | 45 ft | 15 kts | 338° |
| 2026-05-06 18:21 | 3.63912 | 98.88369 | 46 ft | 17 kts | 316° |
| 2026-05-06 18:22 | 3.64003 | 98.88278 | 46 ft | 20 kts | 315° |
| 2026-05-06 18:22 | 3.64106 | 98.88173 | 46 ft | 22 kts | 314° |
| 2026-05-06 18:22 | 3.64217 | 98.88062 | 46 ft | 22 kts | 315° |
| 2026-05-06 18:22 | 3.64306 | 98.87989 | 45 ft | 12 kts | 348° |
| 2026-05-06 18:23 | 3.64374 | 98.88024 | 45 ft | 11 kts | 41° |
| 2026-05-06 18:23 | 3.64438 | 98.88087 | 45 ft | 15 kts | 45° |
| 2026-05-06 18:23 | 3.64518 | 98.88168 | 46 ft | 18 kts | 45° |
| 2026-05-06 18:23 | 3.64616 | 98.88266 | 45 ft | 21 kts | 45° |
| 2026-05-06 18:24 | 3.64714 | 98.88364 | 45 ft | 16 kts | 45° |
| 2026-05-06 18:24 | 3.64797 | 98.88406 | 45 ft | 13 kts | 351° |
| 2026-05-06 18:24 | 3.64870 | 98.88347 | 43 ft | 14 kts | 315° |
| 2026-05-06 18:24 | 3.64945 | 98.88271 | 40 ft | 16 kts | 315° |
| 2026-05-06 18:25 | 3.64960 | 98.88256 | 40 ft | 2 kts | 314° |
| 2026-05-06 18:25 | 3.64963 | 98.88235 | 41 ft | 3 kts | 275° |
| 2026-05-06 18:25 | 3.64943 | 98.88211 | 41 ft | 6 kts | 231° |
| 2026-05-06 18:25 | 3.64868 | 98.88136 | 41 ft | 37 kts | 225° |
| 2026-05-06 18:26 | 3.64494 | 98.87763 | 42 ft | 112 kts | 224° |
| 2026-05-06 18:26 | 3.63789 | 98.87065 | 46 ft | 170 kts | 225° |
| 2026-05-06 18:26 | 3.62888 | 98.86176 | 467 ft | 186 kts | 225° |
| 2026-05-06 18:26 | 3.61980 | 98.85250 | 1153 ft | 187 kts | 224° |
| 2026-05-06 18:27 | 3.61045 | 98.84293 | 1715 ft | 200 kts | 224° |
| 2026-05-06 18:27 | 3.60301 | 98.83062 | 1957 ft | 223 kts | 252° |
| 2026-05-06 18:27 | 3.60246 | 98.81429 | 2216 ft | 244 kts | 282° |
| 2026-05-06 18:27 | 3.60808 | 98.79755 | 2430 ft | 265 kts | 293° |
| 2026-05-06 18:28 | 3.61579 | 98.78076 | 2828 ft | 272 kts | 294° |
| 2026-05-06 18:28 | 3.62358 | 98.76342 | 3345 ft | 274 kts | 293° |
| 2026-05-06 18:28 | 3.62852 | 98.75152 | 3676 ft | 276 kts | 291° |
| 2026-05-06 18:28 | 3.63548 | 98.73353 | 4187 ft | 278 kts | 290° |
| 2026-05-06 18:29 | 3.64212 | 98.71536 | 4738 ft | 279 kts | 289° |
| 2026-05-06 18:29 | 3.64868 | 98.69696 | 5226 ft | 282 kts | 289° |
| 2026-05-06 18:29 | 3.65744 | 98.67227 | 5909 ft | 285 kts | 289° |
| 2026-05-06 18:29 | 3.66196 | 98.65955 | 6223 ft | 288 kts | 290° |
| 2026-05-06 18:30 | 3.66869 | 98.64067 | 6722 ft | 289 kts | 290° |
| 2026-05-06 18:30 | 3.67549 | 98.62164 | 7200 ft | 291 kts | 290° |
| 2026-05-06 18:30 | 3.68235 | 98.60248 | 7694 ft | 293 kts | 290° |
| 2026-05-06 18:30 | 3.68926 | 98.58319 | 8184 ft | 295 kts | 290° |
| 2026-05-06 18:31 | 3.69622 | 98.56379 | 8685 ft | 297 kts | 290° |
| 2026-05-06 18:31 | 3.70322 | 98.54425 | 9181 ft | 299 kts | 290° |
| 2026-05-06 18:31 | 3.71028 | 98.52457 | 9669 ft | 302 kts | 290° |
| 2026-05-06 18:31 | 3.71741 | 98.50466 | 10086 ft | 306 kts | 290° |
| 2026-05-06 18:32 | 3.72477 | 98.48413 | 10212 ft | 321 kts | 290° |
| 2026-05-06 18:32 | 3.73250 | 98.46259 | 10346 ft | 336 kts | 290° |
| 2026-05-06 18:32 | 3.74054 | 98.44017 | 10465 ft | 349 kts | 290° |
| 2026-05-06 18:32 | 3.74886 | 98.41701 | 10772 ft | 355 kts | 290° |
| 2026-05-06 18:33 | 3.75722 | 98.39368 | 11191 ft | 357 kts | 290° |
| 2026-05-06 18:33 | 3.76566 | 98.37016 | 11612 ft | 360 kts | 290° |
| 2026-05-06 18:33 | 3.77412 | 98.34654 | 12026 ft | 363 kts | 290° |
| 2026-05-06 18:33 | 3.78270 | 98.32261 | 12440 ft | 365 kts | 290° |
| 2026-05-06 18:34 | 3.79120 | 98.29891 | 12852 ft | 368 kts | 290° |
| 2026-05-06 18:34 | 3.79987 | 98.27475 | 13256 ft | 370 kts | 290° |
| 2026-05-06 18:34 | 3.80860 | 98.25041 | 13659 ft | 373 kts | 290° |
| 2026-05-06 18:34 | 3.81740 | 98.22586 | 14015 ft | 375 kts | 290° |
| 2026-05-06 18:35 | 3.82625 | 98.20121 | 14383 ft | 378 kts | 290° |
| 2026-05-06 18:35 | 3.83515 | 98.17638 | 14732 ft | 380 kts | 290° |
| 2026-05-06 18:35 | 3.84411 | 98.15141 | 15087 ft | 382 kts | 290° |
| 2026-05-06 18:35 | 3.85310 | 98.12632 | 15445 ft | 385 kts | 290° |
| 2026-05-06 18:36 | 3.86219 | 98.10099 | 15790 ft | 387 kts | 290° |
| 2026-05-06 18:36 | 3.87131 | 98.07555 | 16131 ft | 389 kts | 290° |
| 2026-05-06 18:36 | 3.88050 | 98.04994 | 16477 ft | 392 kts | 290° |
| 2026-05-06 18:36 | 3.88972 | 98.02423 | 16817 ft | 394 kts | 290° |
| 2026-05-06 18:37 | 3.89900 | 97.99832 | 17147 ft | 397 kts | 290° |
| 2026-05-06 18:37 | 3.90834 | 97.97228 | 17503 ft | 398 kts | 290° |
| 2026-05-06 18:37 | 3.91774 | 97.94605 | 17840 ft | 401 kts | 290° |
| 2026-05-06 18:37 | 3.92715 | 97.91974 | 18161 ft | 403 kts | 290° |
| 2026-05-06 18:38 | 3.93664 | 97.89322 | 18472 ft | 405 kts | 290° |
| 2026-05-06 18:38 | 3.94618 | 97.86663 | 18770 ft | 407 kts | 290° |
| 2026-05-06 18:38 | 3.95575 | 97.83994 | 19084 ft | 408 kts | 290° |
| 2026-05-06 18:38 | 3.96535 | 97.81314 | 19343 ft | 411 kts | 290° |
| 2026-05-06 18:39 | 3.97500 | 97.78618 | 19656 ft | 412 kts | 290° |
| 2026-05-06 18:39 | 3.98470 | 97.75911 | 19962 ft | 414 kts | 290° |
| 2026-05-06 18:39 | 3.99443 | 97.73194 | 20292 ft | 416 kts | 290° |
| 2026-05-06 18:40 | 4.01405 | 97.67716 | 20900 ft | 420 kts | 290° |
| 2026-05-06 18:40 | 4.02393 | 97.64954 | 21195 ft | 422 kts | 290° |
| 2026-05-06 18:40 | 4.03385 | 97.62183 | 21502 ft | 424 kts | 290° |
| 2026-05-06 18:40 | 4.04383 | 97.59394 | 21778 ft | 427 kts | 290° |
| 2026-05-06 18:41 | 4.05385 | 97.56595 | 22135 ft | 427 kts | 290° |
| 2026-05-06 18:41 | 4.06390 | 97.53784 | 22434 ft | 430 kts | 290° |
| 2026-05-06 18:41 | 4.07401 | 97.50958 | 22747 ft | 432 kts | 290° |
| 2026-05-06 18:41 | 4.08414 | 97.48125 | 23065 ft | 433 kts | 290° |
| 2026-05-06 18:42 | 4.09434 | 97.45275 | 23353 ft | 435 kts | 290° |
| 2026-05-06 18:42 | 4.10457 | 97.42415 | 23644 ft | 437 kts | 290° |
| 2026-05-06 18:42 | 4.11483 | 97.39546 | 23932 ft | 438 kts | 290° |
| 2026-05-06 18:42 | 4.12513 | 97.36666 | 24206 ft | 440 kts | 290° |
| 2026-05-06 18:43 | 4.13545 | 97.33780 | 24478 ft | 441 kts | 290° |
| 2026-05-06 18:43 | 4.14580 | 97.30882 | 24737 ft | 443 kts | 290° |
| 2026-05-06 18:43 | 4.15620 | 97.27975 | 25017 ft | 444 kts | 290° |
| 2026-05-06 18:43 | 4.16662 | 97.25057 | 25269 ft | 446 kts | 290° |
| 2026-05-06 18:44 | 4.17709 | 97.22128 | 25515 ft | 447 kts | 290° |
| 2026-05-06 18:44 | 4.18758 | 97.19191 | 25771 ft | 449 kts | 290° |
| 2026-05-06 18:44 | 4.19812 | 97.16240 | 26041 ft | 450 kts | 290° |
| 2026-05-06 18:44 | 4.20868 | 97.13283 | 26282 ft | 452 kts | 290° |
| 2026-05-06 18:45 | 4.21930 | 97.10311 | 26536 ft | 454 kts | 290° |
| 2026-05-06 18:45 | 4.22993 | 97.07335 | 26788 ft | 455 kts | 290° |
| 2026-05-06 18:45 | 4.24063 | 97.04339 | 27046 ft | 456 kts | 290° |
| 2026-05-06 18:45 | 4.25132 | 97.01344 | 27278 ft | 458 kts | 290° |
| 2026-05-06 18:46 | 4.26208 | 96.98330 | 27529 ft | 459 kts | 290° |
| 2026-05-06 18:46 | 4.27284 | 96.95313 | 27767 ft | 461 kts | 290° |
| 2026-05-06 18:46 | 4.28366 | 96.92282 | 27998 ft | 463 kts | 290° |
| 2026-05-06 18:46 | 4.29452 | 96.89237 | 28241 ft | 464 kts | 290° |
| 2026-05-06 18:47 | 4.30540 | 96.86187 | 28452 ft | 466 kts | 290° |
| 2026-05-06 18:47 | 4.31632 | 96.83123 | 28695 ft | 468 kts | 290° |
| 2026-05-06 18:47 | 4.32714 | 96.80090 | 28912 ft | 469 kts | 290° |
| 2026-05-06 18:47 | 4.33814 | 96.77007 | 29145 ft | 471 kts | 290° |
| 2026-05-06 18:48 | 4.34922 | 96.73912 | 29348 ft | 473 kts | 290° |
| 2026-05-06 18:48 | 4.36231 | 96.70842 | 29582 ft | 473 kts | 295° |
| 2026-05-06 18:48 | 4.37596 | 96.67880 | 29803 ft | 475 kts | 295° |
| 2026-05-06 18:48 | 4.38975 | 96.64866 | 30018 ft | 477 kts | 295° |
| 2026-05-06 18:49 | 4.40354 | 96.61843 | 30240 ft | 478 kts | 295° |
| 2026-05-06 18:49 | 4.41734 | 96.58812 | 30442 ft | 479 kts | 295° |
| 2026-05-06 18:49 | 4.43117 | 96.55772 | 30651 ft | 480 kts | 295° |
| 2026-05-06 18:49 | 4.44505 | 96.52723 | 30874 ft | 481 kts | 294° |
| 2026-05-06 18:50 | 4.45893 | 96.49674 | 31096 ft | 482 kts | 294° |
| 2026-05-06 18:50 | 4.47288 | 96.46609 | 31318 ft | 483 kts | 294° |
| 2026-05-06 18:50 | 4.48683 | 96.43542 | 31523 ft | 485 kts | 294° |
| 2026-05-06 18:50 | 4.50084 | 96.40464 | 31737 ft | 486 kts | 294° |
| 2026-05-06 18:51 | 4.51486 | 96.37382 | 31943 ft | 487 kts | 294° |
| 2026-05-06 18:51 | 4.52894 | 96.34286 | 32141 ft | 488 kts | 294° |
| 2026-05-06 18:51 | 4.54304 | 96.31186 | 32321 ft | 489 kts | 294° |
| 2026-05-06 18:51 | 4.55716 | 96.28080 | 32511 ft | 490 kts | 294° |
| 2026-05-06 18:52 | 4.57129 | 96.24972 | 32673 ft | 491 kts | 294° |
| 2026-05-06 18:52 | 4.58546 | 96.21856 | 32796 ft | 492 kts | 294° |
| 2026-05-06 18:52 | 4.59966 | 96.18732 | 32914 ft | 493 kts | 294° |
| 2026-05-06 18:52 | 4.61386 | 96.15608 | 33035 ft | 493 kts | 294° |
| 2026-05-06 18:53 | 4.62811 | 96.12474 | 33127 ft | 494 kts | 294° |
| 2026-05-06 18:53 | 4.65663 | 96.06194 | 33306 ft | 495 kts | 294° |
| 2026-05-06 18:54 | 4.68519 | 95.99907 | 33500 ft | 495 kts | 294° |
| 2026-05-06 18:54 | 4.69945 | 95.96766 | 33610 ft | 495 kts | 294° |
| 2026-05-06 18:54 | 4.71374 | 95.93621 | 33719 ft | 495 kts | 294° |
| 2026-05-06 18:54 | 4.72800 | 95.90478 | 33820 ft | 495 kts | 294° |
| 2026-05-06 18:55 | 4.74226 | 95.87338 | 33879 ft | 495 kts | 294° |
| 2026-05-06 18:55 | 4.77075 | 95.81059 | 33872 ft | 495 kts | 294° |
| 2026-05-06 18:56 | 4.79906 | 95.74821 | 33868 ft | 495 kts | 294° |
| 2026-05-06 18:56 | 4.82756 | 95.68535 | 33866 ft | 496 kts | 294° |
| 2026-05-06 18:57 | 4.85610 | 95.62243 | 33863 ft | 496 kts | 294° |
| 2026-05-06 18:57 | 4.88463 | 95.55949 | 33858 ft | 496 kts | 294° |
| 2026-05-06 18:58 | 4.91316 | 95.49654 | 33851 ft | 496 kts | 294° |
| 2026-05-06 18:58 | 4.94172 | 95.43352 | 33851 ft | 497 kts | 294° |
| 2026-05-06 18:59 | 4.97030 | 95.37040 | 33844 ft | 497 kts | 294° |
| 2026-05-06 18:59 | 4.99889 | 95.30725 | 33839 ft | 498 kts | 294° |
| 2026-05-06 19:00 | 5.02749 | 95.24406 | 33830 ft | 498 kts | 294° |
| 2026-05-06 19:00 | 5.05617 | 95.18068 | 33828 ft | 499 kts | 294° |
| 2026-05-06 19:01 | 5.08486 | 95.11726 | 33828 ft | 500 kts | 294° |
| 2026-05-06 19:01 | 5.11361 | 95.05369 | 33831 ft | 500 kts | 294° |
| 2026-05-06 19:02 | 5.14236 | 94.99010 | 33831 ft | 501 kts | 294° |
| 2026-05-06 19:02 | 5.17111 | 94.92649 | 33834 ft | 501 kts | 294° |
| 2026-05-06 19:03 | 5.19965 | 94.86332 | 33836 ft | 501 kts | 294° |
| 2026-05-06 19:03 | 5.22840 | 94.79968 | 33837 ft | 500 kts | 294° |
| 2026-05-06 19:04 | 5.25712 | 94.73606 | 33834 ft | 500 kts | 294° |
| 2026-05-06 19:04 | 5.28583 | 94.67247 | 33833 ft | 500 kts | 294° |
| 2026-05-06 19:05 | 5.31452 | 94.60887 | 33832 ft | 500 kts | 294° |
| 2026-05-06 19:05 | 5.34322 | 94.54525 | 33830 ft | 500 kts | 294° |
| 2026-05-06 19:06 | 5.37192 | 94.48161 | 33830 ft | 501 kts | 294° |
| 2026-05-06 19:06 | 5.40062 | 94.41796 | 33826 ft | 500 kts | 294° |
| 2026-05-06 19:07 | 5.42929 | 94.35434 | 33825 ft | 500 kts | 294° |
| 2026-05-06 19:07 | 5.45795 | 94.29072 | 33828 ft | 500 kts | 294° |
| 2026-05-06 19:08 | 5.48662 | 94.22707 | 33826 ft | 500 kts | 294° |
| 2026-05-06 19:08 | 5.51528 | 94.16341 | 33828 ft | 500 kts | 294° |
| 2026-05-06 19:09 | 5.54392 | 94.09977 | 33826 ft | 500 kts | 294° |
| 2026-05-06 19:09 | 5.57237 | 94.03653 | 33824 ft | 500 kts | 294° |
| 2026-05-06 19:10 | 5.60099 | 93.97290 | 33827 ft | 500 kts | 294° |
| 2026-05-06 19:10 | 5.62962 | 93.90923 | 33823 ft | 500 kts | 294° |
| 2026-05-06 19:11 | 5.65822 | 93.84560 | 33824 ft | 500 kts | 294° |
| 2026-05-06 19:11 | 5.68687 | 93.78185 | 33825 ft | 501 kts | 294° |
| 2026-05-06 19:12 | 5.71548 | 93.71813 | 33828 ft | 500 kts | 294° |
| 2026-05-06 19:12 | 5.74408 | 93.65443 | 33830 ft | 500 kts | 294° |
| 2026-05-06 19:13 | 5.77268 | 93.59073 | 33824 ft | 500 kts | 294° |
| 2026-05-06 19:13 | 5.80125 | 93.52706 | 33825 ft | 500 kts | 294° |
| 2026-05-06 19:14 | 5.82982 | 93.46335 | 33825 ft | 500 kts | 294° |
| 2026-05-06 19:14 | 5.85836 | 93.39972 | 33822 ft | 500 kts | 294° |
| 2026-05-06 19:15 | 5.88690 | 93.33604 | 33822 ft | 500 kts | 294° |
| 2026-05-06 19:15 | 5.91522 | 93.27282 | 33821 ft | 500 kts | 294° |
| 2026-05-06 19:16 | 5.94392 | 93.20875 | 33823 ft | 500 kts | 294° |
| 2026-05-06 19:16 | 5.97223 | 93.14553 | 33826 ft | 499 kts | 294° |
| 2026-05-06 19:17 | 6.00070 | 93.08194 | 33817 ft | 499 kts | 294° |
| 2026-05-06 19:17 | 6.02481 | 93.02874 | 33819 ft | 499 kts | 295° |
| 2026-05-06 19:18 | 6.05381 | 92.96535 | 33820 ft | 499 kts | 295° |
| 2026-05-06 19:18 | 6.08277 | 92.90193 | 33823 ft | 499 kts | 295° |
| 2026-05-06 19:19 | 6.11167 | 92.83853 | 33824 ft | 499 kts | 295° |
| 2026-05-06 19:19 | 6.14053 | 92.77516 | 33821 ft | 499 kts | 295° |
| 2026-05-06 19:20 | 6.16941 | 92.71174 | 33820 ft | 499 kts | 295° |
| 2026-05-06 19:20 | 6.19827 | 92.64833 | 33822 ft | 499 kts | 295° |
| 2026-05-06 19:21 | 6.22711 | 92.58495 | 33820 ft | 499 kts | 295° |
| 2026-05-06 19:21 | 6.25595 | 92.52155 | 33822 ft | 499 kts | 295° |
| 2026-05-06 19:22 | 6.28476 | 92.45816 | 33822 ft | 499 kts | 295° |
| 2026-05-06 19:22 | 6.31358 | 92.39475 | 33823 ft | 498 kts | 295° |
| 2026-05-06 19:23 | 6.34238 | 92.33137 | 33818 ft | 499 kts | 295° |
| 2026-05-06 19:23 | 6.37116 | 92.26800 | 33820 ft | 498 kts | 295° |
| 2026-05-06 19:24 | 6.39995 | 92.20458 | 33821 ft | 498 kts | 295° |
| 2026-05-06 19:24 | 6.42872 | 92.14117 | 33817 ft | 499 kts | 295° |
| 2026-05-06 19:25 | 6.45751 | 92.07773 | 33820 ft | 499 kts | 295° |
| 2026-05-06 19:25 | 6.48628 | 92.01426 | 33816 ft | 499 kts | 295° |
| 2026-05-06 19:26 | 6.51487 | 91.95120 | 33818 ft | 499 kts | 295° |
| 2026-05-06 19:26 | 6.54366 | 91.88765 | 33815 ft | 499 kts | 295° |
| 2026-05-06 19:27 | 6.57265 | 91.82363 | 33816 ft | 500 kts | 295° |
| 2026-05-06 19:27 | 6.60125 | 91.76047 | 33816 ft | 500 kts | 295° |
| 2026-05-06 19:28 | 6.63007 | 91.69678 | 33815 ft | 500 kts | 295° |
| 2026-05-06 19:28 | 6.65890 | 91.63304 | 33819 ft | 501 kts | 295° |
| 2026-05-06 19:29 | 6.68773 | 91.56928 | 33815 ft | 501 kts | 295° |
| 2026-05-06 19:29 | 6.71659 | 91.50543 | 33821 ft | 502 kts | 295° |
| 2026-05-06 19:30 | 6.74548 | 91.44151 | 33816 ft | 502 kts | 295° |
| 2026-05-06 19:30 | 6.77436 | 91.37756 | 33819 ft | 502 kts | 295° |
| 2026-05-06 19:31 | 6.80329 | 91.31349 | 33820 ft | 503 kts | 295° |
| 2026-05-06 19:31 | 6.84668 | 91.21731 | 33820 ft | 503 kts | 295° |
| 2026-05-06 19:32 | 6.87563 | 91.15313 | 33819 ft | 504 kts | 295° |
| 2026-05-06 19:32 | 6.90456 | 91.08896 | 33820 ft | 504 kts | 295° |
| 2026-05-06 19:33 | 6.93349 | 91.02476 | 33817 ft | 504 kts | 295° |
| 2026-05-06 19:33 | 6.96242 | 90.96053 | 33816 ft | 504 kts | 295° |
| 2026-05-06 19:34 | 6.99134 | 90.89630 | 33816 ft | 504 kts | 295° |
| 2026-05-06 19:34 | 7.02027 | 90.83201 | 33819 ft | 504 kts | 294° |
| 2026-05-06 19:35 | 7.04899 | 90.76817 | 33820 ft | 504 kts | 294° |
| 2026-05-06 19:35 | 7.07791 | 90.70387 | 33820 ft | 504 kts | 294° |
| 2026-05-06 19:36 | 7.10683 | 90.63952 | 33822 ft | 504 kts | 294° |
| 2026-05-06 19:36 | 7.13576 | 90.57514 | 33817 ft | 505 kts | 294° |
| 2026-05-06 19:37 | 7.16467 | 90.51075 | 33814 ft | 505 kts | 294° |
| 2026-05-06 19:37 | 7.19361 | 90.44629 | 33815 ft | 505 kts | 294° |
| 2026-05-06 19:38 | 7.22255 | 90.38179 | 33815 ft | 505 kts | 294° |
| 2026-05-06 19:38 | 7.25148 | 90.31728 | 33816 ft | 505 kts | 294° |
| 2026-05-06 19:39 | 7.28041 | 90.25275 | 33812 ft | 506 kts | 294° |
| 2026-05-06 19:39 | 7.30934 | 90.18817 | 33812 ft | 506 kts | 294° |
| 2026-05-06 19:40 | 7.33827 | 90.12358 | 33809 ft | 506 kts | 294° |
| 2026-05-06 19:40 | 7.36721 | 90.05895 | 33810 ft | 506 kts | 294° |
| 2026-05-06 19:41 | 7.39616 | 89.99425 | 33808 ft | 507 kts | 294° |
| 2026-05-06 19:41 | 7.42510 | 89.92954 | 33809 ft | 507 kts | 294° |
| 2026-05-06 19:42 | 7.45407 | 89.86474 | 33810 ft | 507 kts | 295° |
| 2026-05-06 19:42 | 7.48300 | 89.80000 | 33805 ft | 507 kts | 295° |
| 2026-05-06 19:43 | 7.51198 | 89.73513 | 33806 ft | 508 kts | 295° |
| 2026-05-06 19:43 | 7.54095 | 89.67025 | 33809 ft | 508 kts | 295° |
| 2026-05-06 19:44 | 7.56992 | 89.60533 | 33807 ft | 508 kts | 295° |
| 2026-05-06 19:44 | 7.59893 | 89.54028 | 33805 ft | 509 kts | 295° |
| 2026-05-06 19:45 | 7.62792 | 89.47526 | 33810 ft | 509 kts | 295° |
| 2026-05-06 19:45 | 7.65696 | 89.41011 | 33808 ft | 509 kts | 295° |
| 2026-05-06 19:46 | 7.68597 | 89.34502 | 33813 ft | 509 kts | 295° |
| 2026-05-06 19:46 | 7.71524 | 89.27999 | 33808 ft | 509 kts | 295° |
| 2026-05-06 19:47 | 7.74498 | 89.21513 | 33807 ft | 510 kts | 295° |
| 2026-05-06 19:47 | 7.77448 | 89.15067 | 33808 ft | 510 kts | 295° |
| 2026-05-06 19:48 | 7.80414 | 89.08569 | 33805 ft | 510 kts | 295° |
| 2026-05-06 19:48 | 7.83377 | 89.02070 | 33812 ft | 510 kts | 295° |
| 2026-05-06 19:49 | 7.86341 | 88.95566 | 33811 ft | 510 kts | 295° |
| 2026-05-06 19:49 | 7.89304 | 88.89062 | 33810 ft | 510 kts | 295° |
| 2026-05-06 19:50 | 7.92267 | 88.82554 | 33809 ft | 511 kts | 295° |
| 2026-05-06 19:50 | 7.95228 | 88.76046 | 33806 ft | 511 kts | 295° |
| 2026-05-06 19:51 | 7.98192 | 88.69531 | 33807 ft | 511 kts | 295° |
| 2026-05-06 19:51 | 8.01152 | 88.63020 | 33811 ft | 511 kts | 295° |
| 2026-05-06 19:52 | 8.04113 | 88.56503 | 33813 ft | 510 kts | 295° |
| 2026-05-06 19:52 | 8.07066 | 88.50003 | 33810 ft | 510 kts | 295° |
| 2026-05-06 19:53 | 8.10018 | 88.43499 | 33812 ft | 509 kts | 295° |
| 2026-05-06 19:53 | 8.12965 | 88.37005 | 33808 ft | 509 kts | 295° |
| 2026-05-06 19:54 | 8.15887 | 88.30563 | 33809 ft | 508 kts | 295° |
| 2026-05-06 19:54 | 8.18826 | 88.24080 | 33812 ft | 508 kts | 295° |
| 2026-05-06 19:55 | 8.21759 | 88.17605 | 33808 ft | 507 kts | 295° |
| 2026-05-06 19:55 | 8.24690 | 88.11133 | 33809 ft | 506 kts | 295° |
| 2026-05-06 19:56 | 8.27615 | 88.04671 | 33809 ft | 506 kts | 295° |
| 2026-05-06 19:56 | 8.30535 | 87.98216 | 33807 ft | 505 kts | 295° |
| 2026-05-06 19:57 | 8.33449 | 87.91771 | 33806 ft | 505 kts | 295° |
| 2026-05-06 19:57 | 8.36362 | 87.85326 | 33803 ft | 504 kts | 295° |
| 2026-05-06 19:58 | 8.39269 | 87.78890 | 33807 ft | 504 kts | 295° |
| 2026-05-06 19:58 | 8.42172 | 87.72458 | 33799 ft | 503 kts | 295° |
| 2026-05-06 19:59 | 8.45074 | 87.66028 | 33802 ft | 503 kts | 295° |
| 2026-05-06 19:59 | 8.47973 | 87.59598 | 33801 ft | 503 kts | 295° |
| 2026-05-06 20:00 | 8.50869 | 87.53176 | 33802 ft | 502 kts | 295° |
| 2026-05-06 20:00 | 8.53763 | 87.46752 | 33805 ft | 502 kts | 295° |
| 2026-05-06 20:01 | 8.56654 | 87.40332 | 33801 ft | 502 kts | 295° |
| 2026-05-06 20:01 | 8.59543 | 87.33915 | 33797 ft | 502 kts | 295° |
| 2026-05-06 20:02 | 8.62432 | 87.27492 | 33797 ft | 502 kts | 295° |
| 2026-05-06 20:02 | 8.64831 | 87.22156 | 33799 ft | 502 kts | 294° |
| 2026-05-06 20:03 | 8.68206 | 87.14646 | 33793 ft | 502 kts | 294° |
| 2026-05-06 20:03 | 8.71074 | 87.08262 | 33796 ft | 502 kts | 294° |
| 2026-05-06 20:04 | 8.73960 | 87.01831 | 33791 ft | 503 kts | 294° |
| 2026-05-06 20:04 | 8.76379 | 86.96439 | 33789 ft | 503 kts | 294° |
| 2026-05-06 20:05 | 8.79269 | 86.89996 | 33791 ft | 503 kts | 294° |
| 2026-05-06 20:05 | 8.82160 | 86.83544 | 33797 ft | 504 kts | 294° |
| 2026-05-06 20:06 | 8.85051 | 86.77092 | 33794 ft | 504 kts | 294° |
| 2026-05-06 20:06 | 8.87947 | 86.70625 | 33796 ft | 505 kts | 294° |
| 2026-05-06 20:07 | 8.90840 | 86.64158 | 33794 ft | 505 kts | 294° |
| 2026-05-06 20:07 | 8.93735 | 86.57686 | 33798 ft | 505 kts | 294° |
| 2026-05-06 20:08 | 8.96630 | 86.51210 | 33800 ft | 505 kts | 294° |
| 2026-05-06 20:08 | 8.99504 | 86.44778 | 33796 ft | 505 kts | 294° |
| 2026-05-06 20:09 | 9.02394 | 86.38305 | 33799 ft | 505 kts | 294° |
| 2026-05-06 20:09 | 9.05282 | 86.31835 | 33796 ft | 505 kts | 294° |
| 2026-05-06 20:10 | 9.08169 | 86.25363 | 33795 ft | 504 kts | 294° |
| 2026-05-06 20:10 | 9.11053 | 86.18892 | 33793 ft | 504 kts | 294° |
| 2026-05-06 20:11 | 9.13934 | 86.12425 | 33795 ft | 504 kts | 294° |
| 2026-05-06 20:11 | 9.16812 | 86.05962 | 33792 ft | 504 kts | 294° |
| 2026-05-06 20:12 | 9.19689 | 85.99497 | 33793 ft | 503 kts | 294° |
| 2026-05-06 20:12 | 9.22560 | 85.93044 | 33793 ft | 503 kts | 294° |
| 2026-05-06 20:13 | 9.25432 | 85.86588 | 33792 ft | 503 kts | 294° |
| 2026-05-06 20:13 | 9.28383 | 85.80178 | 33798 ft | 502 kts | 295° |
| 2026-05-06 20:14 | 9.31369 | 85.73793 | 33792 ft | 502 kts | 295° |
| 2026-05-06 20:14 | 9.34340 | 85.67403 | 33793 ft | 501 kts | 295° |
| 2026-05-06 20:15 | 9.37299 | 85.61018 | 33794 ft | 500 kts | 295° |
| 2026-05-06 20:15 | 9.40251 | 85.54643 | 33790 ft | 500 kts | 295° |
| 2026-05-06 20:16 | 9.43199 | 85.48273 | 33787 ft | 499 kts | 295° |
| 2026-05-06 20:16 | 9.46141 | 85.41913 | 33789 ft | 498 kts | 295° |
| 2026-05-06 20:17 | 9.49080 | 85.35556 | 33784 ft | 498 kts | 295° |
| 2026-05-06 20:17 | 9.52016 | 85.29202 | 33784 ft | 498 kts | 295° |
| 2026-05-06 20:18 | 9.54947 | 85.22857 | 33783 ft | 497 kts | 295° |
| 2026-05-06 20:18 | 9.57875 | 85.16512 | 33782 ft | 497 kts | 295° |
| 2026-05-06 20:19 | 9.60802 | 85.10167 | 33780 ft | 497 kts | 295° |
| 2026-05-06 20:19 | 9.63726 | 85.03824 | 33781 ft | 497 kts | 295° |
| 2026-05-06 20:20 | 9.66651 | 84.97476 | 33781 ft | 497 kts | 295° |
| 2026-05-06 20:20 | 9.69573 | 84.91131 | 33783 ft | 497 kts | 295° |
| 2026-05-06 20:21 | 9.72493 | 84.84785 | 33784 ft | 497 kts | 295° |
| 2026-05-06 20:21 | 9.75412 | 84.78440 | 33780 ft | 496 kts | 295° |
| 2026-05-06 20:22 | 9.78327 | 84.72098 | 33782 ft | 496 kts | 295° |
| 2026-05-06 20:22 | 9.81240 | 84.65757 | 33783 ft | 496 kts | 295° |
| 2026-05-06 20:23 | 9.84132 | 84.59460 | 33785 ft | 496 kts | 295° |
| 2026-05-06 20:23 | 9.87043 | 84.53117 | 33782 ft | 496 kts | 295° |
| 2026-05-06 20:24 | 9.89969 | 84.46736 | 33781 ft | 496 kts | 295° |
| 2026-05-06 20:24 | 9.92855 | 84.40440 | 33787 ft | 495 kts | 295° |
| 2026-05-06 20:25 | 9.95758 | 84.34102 | 33787 ft | 495 kts | 295° |
| 2026-05-06 20:25 | 9.98657 | 84.27771 | 33785 ft | 495 kts | 295° |
| 2026-05-06 20:26 | 10.01552 | 84.21444 | 33782 ft | 494 kts | 294° |
| 2026-05-06 20:26 | 10.04445 | 84.15119 | 33787 ft | 494 kts | 294° |
| 2026-05-06 20:27 | 10.07333 | 84.08799 | 33784 ft | 494 kts | 294° |
| 2026-05-06 20:27 | 10.10220 | 84.02479 | 33782 ft | 494 kts | 294° |
| 2026-05-06 20:28 | 10.13105 | 83.96159 | 33781 ft | 493 kts | 294° |
| 2026-05-06 20:28 | 10.15986 | 83.89844 | 33783 ft | 493 kts | 294° |
| 2026-05-06 20:29 | 10.18843 | 83.83576 | 33781 ft | 493 kts | 294° |
| 2026-05-06 20:29 | 10.21719 | 83.77265 | 33783 ft | 492 kts | 294° |
| 2026-05-06 20:30 | 10.26024 | 83.67808 | 33780 ft | 492 kts | 294° |
| 2026-05-06 20:31 | 10.28894 | 83.61500 | 33778 ft | 492 kts | 294° |
| 2026-05-06 20:31 | 10.31761 | 83.55196 | 33779 ft | 492 kts | 294° |
| 2026-05-06 20:32 | 10.34627 | 83.48888 | 33781 ft | 492 kts | 294° |
| 2026-05-06 20:32 | 10.37493 | 83.42579 | 33777 ft | 492 kts | 294° |
| 2026-05-06 20:33 | 10.40358 | 83.36267 | 33784 ft | 492 kts | 294° |
| 2026-05-06 20:33 | 10.43224 | 83.29950 | 33780 ft | 492 kts | 294° |
| 2026-05-06 20:34 | 10.46088 | 83.23631 | 33780 ft | 493 kts | 294° |
| 2026-05-06 20:34 | 10.48953 | 83.17308 | 33781 ft | 493 kts | 294° |
| 2026-05-06 20:35 | 10.51816 | 83.10983 | 33782 ft | 493 kts | 294° |
| 2026-05-06 20:35 | 10.54681 | 83.04651 | 33784 ft | 493 kts | 294° |
| 2026-05-06 20:36 | 10.57525 | 82.98362 | 33786 ft | 493 kts | 294° |
| 2026-05-06 20:36 | 10.60389 | 82.92027 | 33789 ft | 493 kts | 294° |
| 2026-05-06 20:37 | 10.63252 | 82.85689 | 33786 ft | 493 kts | 294° |
| 2026-05-06 20:37 | 10.66120 | 82.79357 | 33784 ft | 493 kts | 294° |
| 2026-05-06 20:38 | 10.68995 | 82.73022 | 33786 ft | 493 kts | 294° |
| 2026-05-06 20:38 | 10.71868 | 82.66688 | 33789 ft | 494 kts | 294° |
| 2026-05-06 20:39 | 10.74743 | 82.60344 | 33784 ft | 494 kts | 294° |
| 2026-05-06 20:39 | 10.77616 | 82.54000 | 33785 ft | 494 kts | 294° |
| 2026-05-06 20:40 | 10.80487 | 82.47655 | 33785 ft | 494 kts | 293° |
| 2026-05-06 20:40 | 10.83358 | 82.41306 | 33785 ft | 494 kts | 293° |
| 2026-05-06 20:41 | 10.86229 | 82.34952 | 33785 ft | 494 kts | 293° |
| 2026-05-06 20:41 | 10.89099 | 82.28597 | 33785 ft | 494 kts | 293° |
| 2026-05-06 20:42 | 10.91965 | 82.22246 | 33788 ft | 494 kts | 293° |
| 2026-05-06 20:42 | 10.94834 | 82.15885 | 33788 ft | 494 kts | 293° |
| 2026-05-06 20:43 | 10.97702 | 82.09522 | 33790 ft | 495 kts | 293° |
| 2026-05-06 20:43 | 11.00567 | 82.03160 | 33789 ft | 495 kts | 293° |
| 2026-05-06 20:44 | 11.03414 | 81.96836 | 33780 ft | 495 kts | 294° |
| 2026-05-06 20:44 | 11.06276 | 81.90473 | 33791 ft | 495 kts | 293° |
| 2026-05-06 20:45 | 11.09139 | 81.84104 | 33788 ft | 495 kts | 294° |
| 2026-05-06 20:45 | 11.12001 | 81.77735 | 33787 ft | 495 kts | 294° |
| 2026-05-06 20:46 | 11.14862 | 81.71361 | 33788 ft | 495 kts | 294° |
| 2026-05-06 20:46 | 11.17722 | 81.64987 | 33786 ft | 495 kts | 294° |
| 2026-05-06 20:47 | 11.20583 | 81.58604 | 33784 ft | 495 kts | 294° |
| 2026-05-06 20:47 | 11.23443 | 81.52222 | 33785 ft | 496 kts | 294° |
| 2026-05-06 20:48 | 11.26304 | 81.45832 | 33790 ft | 495 kts | 294° |
| 2026-05-06 20:48 | 11.29161 | 81.39446 | 33791 ft | 496 kts | 294° |
| 2026-05-06 20:49 | 11.32018 | 81.33058 | 33786 ft | 495 kts | 294° |
| 2026-05-06 20:49 | 11.34873 | 81.26668 | 33789 ft | 495 kts | 294° |
| 2026-05-06 20:50 | 11.37726 | 81.20278 | 33785 ft | 495 kts | 294° |
| 2026-05-06 20:50 | 11.40578 | 81.13886 | 33785 ft | 496 kts | 294° |
| 2026-05-06 20:51 | 11.43431 | 81.07489 | 33788 ft | 495 kts | 294° |
| 2026-05-06 20:51 | 11.46261 | 81.01139 | 33788 ft | 495 kts | 293° |
| 2026-05-06 20:52 | 11.49107 | 80.94748 | 33787 ft | 495 kts | 293° |
| 2026-05-06 20:52 | 11.51488 | 80.89397 | 33789 ft | 495 kts | 293° |
| 2026-05-06 20:53 | 11.54790 | 80.81973 | 33788 ft | 494 kts | 293° |
| 2026-05-06 20:53 | 11.57627 | 80.75590 | 33786 ft | 494 kts | 293° |
| 2026-05-06 20:54 | 11.60003 | 80.70238 | 33786 ft | 494 kts | 293° |
| 2026-05-06 20:54 | 11.62836 | 80.63856 | 33785 ft | 494 kts | 293° |
| 2026-05-06 20:55 | 11.65668 | 80.57470 | 33786 ft | 494 kts | 293° |
| 2026-05-06 20:55 | 11.68476 | 80.51133 | 33788 ft | 493 kts | 293° |
| 2026-05-06 20:56 | 11.71299 | 80.44759 | 33785 ft | 493 kts | 293° |
| 2026-05-06 20:56 | 11.74142 | 80.38337 | 33784 ft | 493 kts | 293° |
| 2026-05-06 20:57 | 11.76942 | 80.32006 | 33782 ft | 493 kts | 293° |
| 2026-05-06 20:57 | 11.79758 | 80.25634 | 33783 ft | 492 kts | 293° |
| 2026-05-06 20:58 | 11.82572 | 80.19262 | 33782 ft | 492 kts | 293° |
| 2026-05-06 20:58 | 11.85386 | 80.12888 | 33786 ft | 492 kts | 293° |
| 2026-05-06 20:59 | 11.88184 | 80.06512 | 33787 ft | 492 kts | 293° |
| 2026-05-06 20:59 | 11.90965 | 80.00121 | 33784 ft | 492 kts | 293° |
| 2026-05-06 21:00 | 11.93748 | 79.93732 | 33786 ft | 493 kts | 293° |
| 2026-05-06 21:00 | 11.96532 | 79.87339 | 33787 ft | 493 kts | 293° |
| 2026-05-06 21:01 | 11.99315 | 79.80945 | 33790 ft | 493 kts | 293° |
| 2026-05-06 21:01 | 12.02098 | 79.74546 | 33799 ft | 493 kts | 293° |
| 2026-05-06 21:02 | 12.04879 | 79.68150 | 33798 ft | 493 kts | 293° |
| 2026-05-06 21:02 | 12.07660 | 79.61745 | 33805 ft | 493 kts | 293° |
| 2026-05-06 21:03 | 12.10484 | 79.55366 | 33809 ft | 493 kts | 294° |
| 2026-05-06 21:03 | 12.13404 | 79.49018 | 33818 ft | 493 kts | 294° |
| 2026-05-06 21:04 | 12.16312 | 79.42668 | 33822 ft | 493 kts | 294° |
| 2026-05-06 21:04 | 12.19207 | 79.36310 | 33824 ft | 493 kts | 294° |
| 2026-05-06 21:05 | 12.22097 | 79.29953 | 33832 ft | 493 kts | 294° |
| 2026-05-06 21:05 | 12.24988 | 79.23589 | 33839 ft | 493 kts | 294° |
| 2026-05-06 21:06 | 12.27878 | 79.17227 | 33848 ft | 494 kts | 294° |
| 2026-05-06 21:06 | 12.30768 | 79.10858 | 33851 ft | 494 kts | 294° |
| 2026-05-06 21:07 | 12.33657 | 79.04487 | 33858 ft | 494 kts | 294° |
| 2026-05-06 21:07 | 12.36541 | 78.98121 | 33867 ft | 494 kts | 294° |
| 2026-05-06 21:08 | 12.39427 | 78.91746 | 33873 ft | 494 kts | 294° |
| 2026-05-06 21:08 | 12.42312 | 78.85369 | 33877 ft | 494 kts | 294° |
| 2026-05-06 21:09 | 12.45194 | 78.78995 | 33878 ft | 494 kts | 294° |
| 2026-05-06 21:09 | 12.48076 | 78.72615 | 33889 ft | 494 kts | 294° |
| 2026-05-06 21:10 | 12.50955 | 78.66238 | 33880 ft | 494 kts | 294° |
| 2026-05-06 21:10 | 12.53834 | 78.59856 | 33884 ft | 494 kts | 294° |
| 2026-05-06 21:11 | 12.56689 | 78.53522 | 33884 ft | 493 kts | 294° |
| 2026-05-06 21:11 | 12.59562 | 78.47142 | 33891 ft | 493 kts | 294° |
| 2026-05-06 21:12 | 12.62434 | 78.40763 | 33898 ft | 493 kts | 294° |
| 2026-05-06 21:12 | 12.65301 | 78.34386 | 33905 ft | 493 kts | 294° |
| 2026-05-06 21:13 | 12.68169 | 78.28004 | 33909 ft | 493 kts | 294° |
| 2026-05-06 21:13 | 12.71036 | 78.21620 | 33910 ft | 493 kts | 294° |
| 2026-05-06 21:14 | 12.73899 | 78.15239 | 33919 ft | 493 kts | 294° |
| 2026-05-06 21:14 | 12.76762 | 78.08853 | 33920 ft | 493 kts | 294° |
| 2026-05-06 21:15 | 12.79623 | 78.02468 | 33931 ft | 493 kts | 294° |
| 2026-05-06 21:15 | 12.82486 | 77.96074 | 33941 ft | 493 kts | 294° |
| 2026-05-06 21:16 | 12.85347 | 77.89679 | 33949 ft | 494 kts | 294° |